createdAt,value
2022-08-08T00:04:49.448Z,2.65
2022-08-08T00:10:17.636Z,2.10
2022-08-08T00:15:57.586Z,2.67
2022-08-08T00:21:00.819Z,1.80
2022-08-08T00:26:06.424Z,2.35
2022-08-08T00:32:32.794Z,2.22
2022-08-08T00:36:51.565Z,2.00
2022-08-08T00:42:19.701Z,2.50
2022-08-08T00:48:30.067Z,2.85
2022-08-08T00:54:04.506Z,2.15
2022-08-08T00:59:44.551Z,2.20
2022-08-08T01:05:29.292Z,2.17
2022-08-08T01:10:57.829Z,2.15
2022-08-08T01:16:27.749Z,2.05
2022-08-08T01:22:12.791Z,2.30
2022-08-08T01:27:44.310Z,2.83
2022-08-08T01:33:23.358Z,2.30
2022-08-08T01:38:51.381Z,1.92
2022-08-08T01:44:11.047Z,2.30
2022-08-08T01:49:45.082Z,2.15
2022-08-08T01:55:25.416Z,1.90
2022-08-08T02:01:04.184Z,2.30
2022-08-08T02:06:33.129Z,2.00
2022-08-08T02:12:00.174Z,2.03
2022-08-08T02:17:36.533Z,2.10
2022-08-08T02:22:55.417Z,1.90
2022-08-08T02:28:34.766Z,2.10
2022-08-08T02:34:08.617Z,2.28
2022-08-08T02:39:42.343Z,2.15
2022-08-08T02:45:23.918Z,2.03
2022-08-08T02:51:07.191Z,1.70
2022-08-08T02:56:32.353Z,2.05
2022-08-08T03:01:50.538Z,1.85
2022-08-08T03:07:41.693Z,1.73
2022-08-08T03:15:53.946Z,1.92
2022-08-08T03:18:54.698Z,1.75
2022-08-08T03:23:59.749Z,1.98
2022-08-08T03:29:17.117Z,2.08
2022-08-08T03:34:23.289Z,2.03
2022-08-08T03:39:29.072Z,1.67
2022-08-08T03:44:33.527Z,2.25
2022-08-08T03:49:57.465Z,2.30
2022-08-08T03:55:10.708Z,2.42
2022-08-08T04:00:26.219Z,2.35
2022-08-08T04:05:48.073Z,1.92
2022-08-08T04:10:59.819Z,2.45
2022-08-08T04:16:03.936Z,1.90
2022-08-08T04:21:19.846Z,2.20
2022-08-08T04:26:25.806Z,2.08
2022-08-08T04:31:56.994Z,2.15
2022-08-08T04:36:50.607Z,2.25
2022-08-08T04:41:52.675Z,2.92
2022-08-08T04:46:58.168Z,2.50
2022-08-08T04:52:00.491Z,2.67
2022-08-08T04:57:06.231Z,2.30
2022-08-08T05:02:13.421Z,2.45
2022-08-08T05:07:15.678Z,2.95
2022-08-08T05:12:20.986Z,2.55
2022-08-08T05:17:23.746Z,3.15
2022-08-08T05:22:27.762Z,3.10
2022-08-08T05:27:33.371Z,2.92
2022-08-08T05:32:36.657Z,3.30
2022-08-08T05:37:53.440Z,3.22
2022-08-08T05:43:17.123Z,3.10
2022-08-08T05:48:28.702Z,2.88
2022-08-08T05:54:24.179Z,3.30
2022-08-08T05:59:05.038Z,3.83
2022-08-08T06:04:13.860Z,3.70
2022-08-08T06:09:58.230Z,3.28
2022-08-08T06:14:51.924Z,3.38
2022-08-08T06:20:03.579Z,3.35
2022-08-08T06:25:06.063Z,2.50
2022-08-08T06:30:26.122Z,2.40
2022-08-08T06:36:04.083Z,2.70
2022-08-08T06:41:07.472Z,2.47
2022-08-08T06:46:12.856Z,2.00
2022-08-08T06:51:17.319Z,1.85
2022-08-08T06:56:23.166Z,1.90
2022-08-08T07:02:26.680Z,2.08
2022-08-08T07:06:59.611Z,2.45
2022-08-08T07:12:41.281Z,2.25
2022-08-08T07:18:01.689Z,2.35
2022-08-08T07:23:22.438Z,1.83
2022-08-08T07:28:31.373Z,1.40
2022-08-08T07:33:38.056Z,1.40
2022-08-08T07:38:57.545Z,1.33
2022-08-08T07:44:17.662Z,1.58
2022-08-08T07:49:28.021Z,1.25
2022-08-08T07:54:43.063Z,1.27
2022-08-08T08:00:16.057Z,1.48
2022-08-08T08:05:33.555Z,1.40
2022-08-08T08:10:39.427Z,1.50
2022-08-08T08:15:42.103Z,1.80
2022-08-08T08:20:45.343Z,1.58
2022-08-08T08:25:55.158Z,1.60
2022-08-08T08:31:04.680Z,1.63
2022-08-08T08:36:19.845Z,1.30
2022-08-08T08:41:26.081Z,1.70
2022-08-08T08:46:34.506Z,2.35
2022-08-08T08:51:50.891Z,1.80
2022-08-08T08:56:56.073Z,1.77
2022-08-08T09:02:00.017Z,2.97
2022-08-08T09:07:12.830Z,1.50
2022-08-08T09:12:19.934Z,1.48
2022-08-08T09:17:41.213Z,1.30
2022-08-08T09:22:48.729Z,2.40
2022-08-08T09:27:57.252Z,1.90
2022-08-08T09:33:20.784Z,1.60
2022-08-08T09:38:35.536Z,1.75
2022-08-08T09:44:06.453Z,2.20
2022-08-08T09:49:42.851Z,1.60
2022-08-08T09:54:44.750Z,1.85
2022-08-08T10:00:20.991Z,1.90
2022-08-08T10:05:31.205Z,1.37
2022-08-08T10:10:37.313Z,2.53
2022-08-08T10:15:39.457Z,1.20
2022-08-08T10:20:58.179Z,1.52
2022-08-08T10:26:05.748Z,1.40
2022-08-08T10:31:50.084Z,1.40
2022-08-08T10:36:52.599Z,1.25
2022-08-08T10:42:16.334Z,1.20
2022-08-08T10:47:21.112Z,1.08
2022-08-08T10:52:30.706Z,1.30
2022-08-08T10:57:50.783Z,1.20
2022-08-08T11:02:56.913Z,1.13
2022-08-08T11:08:38.654Z,1.20
2022-08-08T11:13:30.096Z,1.10
2022-08-08T11:18:37.105Z,1.00
2022-08-08T11:23:42.510Z,1.40
2022-08-08T11:28:45.526Z,0.90
2022-08-08T11:34:03.176Z,1.20
2022-08-08T11:39:12.681Z,1.50
2022-08-08T11:44:15.743Z,1.33
2022-08-08T11:49:18.515Z,0.93
2022-08-08T11:54:44.597Z,1.00
2022-08-08T12:00:05.630Z,1.20
2022-08-08T12:05:14.697Z,1.38
2022-08-08T12:10:19.286Z,1.40
2022-08-08T12:15:40.020Z,1.55
2022-08-08T12:20:45.459Z,1.90
2022-08-08T12:25:55.152Z,1.65
2022-08-08T12:31:08.781Z,1.50
2022-08-08T12:36:11.860Z,2.00
2022-08-08T12:41:18.227Z,1.33
2022-08-08T12:46:36.994Z,1.25
2022-08-08T12:51:40.909Z,1.23
2022-08-08T12:56:51.942Z,1.27
2022-08-08T13:02:01.676Z,1.13
2022-08-08T13:12:28.822Z,1.50
2022-08-08T13:18:08.559Z,1.48
2022-08-08T13:23:29.977Z,1.33
2022-08-08T13:28:28.651Z,1.38
2022-08-08T13:33:42.673Z,1.75
2022-08-08T13:38:45.185Z,1.77
2022-08-08T13:43:49.793Z,1.58
2022-08-08T13:49:12.326Z,1.65
2022-08-08T13:54:21.440Z,1.30
2022-08-08T13:59:34.921Z,1.48
2022-08-08T14:04:54.574Z,1.38
2022-08-08T14:10:05.125Z,0.90
2022-08-08T14:15:39.893Z,1.40
2022-08-08T14:21:08.159Z,1.45
2022-08-08T14:26:25.133Z,1.40
2022-08-08T14:32:05.863Z,1.00
2022-08-08T14:36:54.546Z,0.85
2022-08-08T14:42:03.509Z,1.00
2022-08-08T14:47:21.191Z,0.90
2022-08-08T14:52:25.630Z,1.27
2022-08-08T14:58:06.287Z,1.23
2022-08-08T15:02:58.748Z,1.20
2022-08-08T15:08:21.929Z,0.90
2022-08-08T15:13:40.472Z,0.95
2022-08-08T15:18:56.772Z,1.70
2022-08-08T15:24:00.078Z,1.40
2022-08-08T15:29:01.935Z,1.17
2022-08-08T15:34:33.658Z,1.63
2022-08-08T15:39:50.224Z,1.63
2022-08-08T15:44:53.442Z,1.52
2022-08-08T15:50:20.700Z,1.80
2022-08-08T15:55:22.765Z,1.58
2022-08-08T16:00:28.203Z,1.58
2022-08-08T16:05:35.916Z,1.50
2022-08-08T16:13:05.465Z,1.58
2022-08-08T16:16:18.138Z,1.80
2022-08-08T16:21:26.623Z,1.92
2022-08-08T16:26:34.254Z,1.80
2022-08-08T16:31:41.979Z,1.50
2022-08-08T16:36:50.509Z,1.90
2022-08-08T16:41:53.178Z,2.38
2022-08-08T16:47:21.618Z,1.90
2022-08-08T16:55:00.972Z,2.22
2022-08-08T16:58:16.088Z,2.35
2022-08-08T17:03:58.731Z,1.75
2022-08-08T17:14:27.346Z,1.58
2022-08-08T17:19:40.884Z,1.77
2022-08-08T17:24:43.641Z,1.60
2022-08-08T17:29:56.970Z,1.75
2022-08-08T17:35:53.894Z,1.80
2022-08-08T17:40:21.251Z,1.45
2022-08-08T17:45:24.448Z,1.65
2022-08-08T17:50:56.528Z,2.50
2022-08-08T17:56:14.552Z,2.30
2022-08-08T18:01:43.806Z,1.15
2022-08-08T18:06:43.115Z,1.50
2022-08-08T18:11:49.054Z,1.75
2022-08-08T18:16:54.355Z,1.50
2022-08-08T18:22:01.893Z,1.63
2022-08-08T18:27:17.455Z,1.40
2022-08-08T18:32:19.736Z,1.70
2022-08-08T18:37:34.490Z,1.63
2022-08-08T18:42:36.615Z,1.92
2022-08-08T18:47:39.879Z,1.88
2022-08-08T18:52:42.178Z,2.08
2022-08-08T18:57:46.162Z,1.77
2022-08-08T19:02:56.479Z,1.88
2022-08-08T19:07:59.853Z,1.52
2022-08-08T19:13:01.543Z,2.25
2022-08-08T19:18:33.416Z,1.50
2022-08-08T19:23:35.490Z,1.55
2022-08-08T19:28:37.421Z,1.80
2022-08-08T19:34:04.626Z,1.92
2022-08-08T19:39:04.783Z,1.83
2022-08-08T19:44:13.192Z,1.60
2022-08-08T19:49:28.876Z,1.10
2022-08-08T19:54:39.366Z,1.30
2022-08-08T19:59:41.791Z,1.25
2022-08-08T20:04:43.472Z,1.73
2022-08-08T20:09:55.839Z,1.42
2022-08-08T20:14:59.171Z,1.42
2022-08-08T20:20:01.159Z,1.38
2022-08-08T20:25:04.431Z,1.67
2022-08-08T20:30:35.534Z,1.40
2022-08-08T20:35:57.068Z,1.63
2022-08-08T20:40:57.486Z,1.60
2022-08-08T20:46:03.598Z,1.08
2022-08-08T20:51:05.918Z,1.33
2022-08-08T20:56:07.848Z,2.10
2022-08-08T21:01:19.376Z,1.90
2022-08-08T21:06:22.274Z,1.45
2022-08-08T21:11:51.567Z,1.88
2022-08-08T21:16:55.158Z,2.05
2022-08-08T21:22:00.512Z,1.90
2022-08-08T21:27:03.031Z,2.00
2022-08-08T21:32:13.970Z,1.95
2022-08-08T21:37:19.207Z,1.88
2022-08-08T21:42:20.879Z,1.50
2022-08-08T21:48:20.133Z,2.20
2022-08-08T21:54:36.673Z,1.85
2022-08-08T21:58:13.669Z,1.67
2022-08-08T22:03:17.727Z,1.75
2022-08-08T22:08:24.177Z,2.08
2022-08-08T22:13:25.951Z,1.45
2022-08-08T22:18:45.922Z,1.40
2022-08-08T22:23:53.479Z,1.67
2022-08-08T22:29:14.893Z,1.98
2022-08-08T22:34:17.072Z,1.40
2022-08-08T22:39:19.629Z,1.83
2022-08-08T22:44:21.999Z,1.80
2022-08-08T22:49:25.589Z,1.75
2022-08-08T22:54:35.664Z,1.60
2022-08-08T23:00:15.376Z,1.17
2022-08-08T23:05:21.255Z,1.38
2022-08-08T23:10:25.512Z,1.60
2022-08-08T23:16:40.729Z,1.90
2022-08-08T23:20:54.628Z,1.90
2022-08-08T23:25:56.888Z,1.88
2022-08-08T23:30:58.614Z,1.83
2022-08-08T23:36:08.274Z,1.77
2022-08-08T23:41:17.317Z,2.00
2022-08-08T23:49:06.162Z,1.40
2022-08-08T23:52:07.173Z,1.55
2022-08-08T23:57:20.970Z,1.38
